Historyczne dane pomiarowe

Dodano dane terminowe – wersja testowa.

Dane z okresu 1951-2019

Wersja bazy: 1.34 [2019-03-16, lista zmian], aktualizacja planowana na 2019-04-15

Dane meteo z obszaru Polski uzyskane na podstawie danych udostępnionych przez Instytut Meteorologii i Gospodarki Wodnej – Państwowy Instytut Badawczy.

 

Wybierz Datę:    

       

TemperaturaWilgotnośćWiatrCiśnienieOpadyŚniegCzas trwania zjawisk
 Stacja t tx tn tng RH VA  wxwx mslp ppp RRR   cm mm wxwxwxwxwxwxwx
2015-07-16 19.7 27.1 12.6 10.7 70.8 15.9- 1.9--1016.2- 0.0--x- 6.9-------
2015-07-17 22.5 31.1 13.1 11.1 69.8 18.4- 1.9--1013.2- 0.0--x- 10.4-------
2015-07-18 23.0 29.6 15.2 13.0 67.5 18.3- 2.4--1011.8- 0.0--x- 10.3-------
2015-07-19 18.7 25.0 14.0 13.3 81.0 17.5- 2.8--1008.4- 0.8--x- 3.4-------
2015-07-20 19.4 25.6 14.0 11.8 60.3 12.8- 3.8--1011.1- 1.7--x- 13.8-------
2015-07-21 21.1 30.1 15.6 14.6 76.6 19.2- 2.1--1010.9- 3.7--x- 5.1-------
2015-07-22 24.1 30.5 15.9 14.6 66.6 18.8- 2.0--1011.3- 5.5--x- 8.4-------
2015-07-23 20.7 26.5 13.7 11.5 68.8 16.2- 2.8--1012.5- 0.0--x- 6.5-------
2015-07-24 20.0 26.8 11.5 10.0 65.0 14.4- 2.3--1012.9- 23.9--x- 10.5-------
2015-07-25 21.6 29.5 15.5 15.3 63.9 15.9- 5.5--1001.7- 0.0--x- 6.0-------
2015-07-26 16.2 21.4 10.8 8.1 62.3 11.1- 5.3--1008.6- 0.2--x- 5.1-------
2015-07-27 16.4 22.5 10.5 8.8 73.1 13.5- 2.8--1001.8- 0.5--x- 0.9-------
2015-07-28 17.3 22.2 13.6 12.1 72.0 13.9- 4.6--1002.1- 0.1--x- 4.3-------
2015-07-29 16.1 22.7 10.8 8.8 61.8 10.8- 4.5--1004.5- 0.6--x- 8.0-------
2015-07-30 16.1 20.9 10.4 9.2 59.5 10.7- 6.2--1008.5- 0.0--x- 3.2-------
2015-07-31 14.0 19.7 6.9 3.7 66.5 10.2- 3.6--1016.0- 0.0--x- 2.9-------
2015-08-01 17.2 26.8 4.9 2.5 61.0 10.9- 2.2--1016.4- 0.0--x- 11.2-------
2015-08-02 21.8 30.9 13.2 11.0 49.8 12.0- 1.7--1016.7- 0.0--x- 13.4-------
2015-08-03 22.9 32.2 10.9 9.2 55.3 14.2- 1.6--1016.8- 0.0--x- 13.9-------
2015-08-04 26.4 35.3 16.8 15.2 49.6 15.6- 3.5--1011.9- 0.4--x- 12.8-------
2015-08-05 21.3 26.8 15.2 12.7 72.5 18.0- 2.1--1016.4- 0.0--x- 4.4-------
2015-08-06 25.2 35.3 15.9 13.3 61.3 17.7- 2.2--1014.9- 0.0--x- 12.3-------
2015-08-07 27.5 37.4 16.5 14.5 55.7 18.1- 1.7--1014.7- 0.0--x- 10.6-------
2015-08-08 25.8 35.2 18.5 17.2 62.1 19.5- 2.4--1014.9- 0.1--x- 11.9-------
2015-08-09 22.2 29.1 16.3 15.3 66.3 17.2- 2.5--1018.4- 0.0--x- 9.8-------
2015-08-10 24.5 32.7 14.4 13.9 63.0 18.6- 2.5--1015.0- 0.0--x- 11.5-------
2015-08-11 27.0 37.1 19.9 19.3 51.3 16.9- 2.7--1013.2- 0.0--x- 10.4-------
2015-08-12 23.1 29.6 17.6 16.6 69.7 19.2- 2.6--1018.2- 0.1--x- 7.7-------
2015-08-13 23.4 29.8 18.7 17.9 63.9 17.8- 2.9--1017.9- 0.0--x- 9.4-------
2015-08-14 26.0 34.8 17.2 16.7 52.3 16.9- 4.7--1009.7- 3.8--x- 13.0-------
124.2 ms

 

Źródłem pochodzenia danych jest Instytut Meteorologii i Gospodarki Wodnej – Państwowy Instytut Badawczy. Dane Instytutu Meteorologii i Gospodarki Wodnej – Państwowego Instytutu Badawczego zostały przetworzone.

Dane źródłowe można odnaleźć na stronie https://dane.imgw.pl